Aviation Digital Data Service (ADDS)

Output produced by METARs form (1910 UTC 25 June 2017)
found at http://www.aviationweather.gov/adds/metars/
 
DAUA 251900Z 02005KT 1000 HZ NSC 42/// Q1009
TAF DAUA 251700Z 2518/2618 04014KT 6000 NSC 
     TEMPO 2518/2524 1500 HZ 
     BECMG 2612/2615 32012KT
       
DABB 251900Z 03005KT CAVOK 25/23 Q1013
TAF DABB 251700Z 2518/2618 04012KT 9999 FEW023 
     BECMG 2522/2524 VRB02KT 
     PROB30 
     TEMPO 2602/2607 4000 SCT010 
     BECMG 2609/2612 04012KT
       
DABT 251900Z 24004KT CAVOK 32/08 Q1018
TAF DABT 251700Z 2518/2618 30010KT 9999 FEW026 
     PROB30 
     TEMPO 2518/2520 FEW026TCU 
     BECMG 2520/2522 VRB02KT 
     BECMG 2609/2612 28010KT
       
DAOR 251900Z 17006KT CAVOK 36/M01 Q1017
TAF DAOR 251700Z 2518/2603 14008KT CAVOK
       
DAAE 251900Z 06005KT CAVOK 26/21 Q1014
TAF DAAE 251700Z 2518/2618 06012KT 9999 FEW023 
     BECMG 2522/2524 VRB02KT 
     BECMG 2609/2612 08010KT
       
DAUB 251900Z 13007KT CAVOK 38/13 Q1012
TAF DAUB 251700Z 2518/2618 12010KT CAVOK 
     BECMG 2521/2524 22008KT 
     BECMG 2609/2612 16012KT
       
DATM 251800Z 20014KT 3000 HZ SCT046 SCT100 37/16 Q1012
TAF DATM 251400Z 2515/2524 18020KT 2000 DRSA SCT046 SCT100 
     PROB40 
     TEMPO 2515/2518 18020G30KT 1000 BLSA FEW040CB
       
DAAD 251800Z 00000KT CAVOK 38/05 Q1014
TAF DAAD 251700Z 2518/2603 VRB02KT CAVOK 
     BECMG 2522/2602 26010KT
       
DAOI 251900Z 04010KT CAVOK 39/12 Q1010
TAF DAOI 251700Z 2518/2618 VRB02KT 9999 FEW026 
     BECMG 2522/2524 18010KT 
     BECMG 2601/2603 VRB02KT 
     BECMG 2609/2612 28012KT 9999 FEW026CB BKN233 
     BECMG 2615/2618 VRB02KT 9999 FEW030 SCT233
       
DABC 251900Z 06007KT 9999 FEW030 29/12 Q1017
TAF DABC 251700Z 2518/2618 02012KT 9999 FEW030 
     PROB30 
     TEMPO 2518/2520 FEW026TCU 
     BECMG 2520/2522 VRB02KT 
     BECMG 2609/2612 04010KT
       
DAAG 251900Z 03004KT CAVOK 26/19 Q1012
TAF DAAG 251700Z 2518/2618 04014KT CAVOK 
     BECMG 2519/2522 VRB02KT 
     BECMG 2607/2610 30012KT
       
DAAJ 251900Z 12011KT 8000 BKN046 31/09 Q1019
TAF DAAJ 251700Z 2518/2618 02008KT 8000 SCT046 SCT100 
     TEMPO 2518/2524 02015G30KT 4000 -TSRA FEW040CB
       
DAUE 251800Z 04007KT CAVOK 37/04 Q1015
DAUO 251900Z 02002KT CAVOK 38/13 Q1012
TAF DAUO 251700Z 2518/2603 VRB02KT CAVOK
       
DAUG 251900Z 00000KT CAVOK 36/03 Q1016
TAF DAUG 251700Z 2518/2618 10010KT CAVOK 
     BECMG 2522/2601 VRB02KT 
     BECMG 2607/2610 16010KT
       
DAUH 251900Z 04003KT CAVOK 37/09 Q1013
TAF DAUH 251700Z 2518/2618 06012KT CAVOK 
     TEMPO 2600/2604 VRB02KT 
     BECMG 2608/2611 16010KT
       
DAAP 251900Z 27012KT 3000 HZ SCT040 SCT100 36/09 Q1013
TAF DAAP 251700Z 2518/2603 18008KT 8000 FEW046 
     TEMPO 2518/2522 18015G25KT 3000 DRSA FEW040CB
       
DAUZ 251900Z 30007KT CAVOK 37/M01 Q1013
TAF DAUZ 251700Z 2518/2618 02010KT 9999 FEW046 
     BECMG 2612/2615 32010KT
       
DAUI 251656Z 02009KT 1500 HZ VV/// 42/03 Q1009
TAF DAUI 251700Z 2518/2618 06008KT 6000 NSC 
     TEMPO 2518/2524 1500 HZ
       
DAAV 251900Z 27005KT CAVOK 27/22 Q1013
TAF DAAV 251700Z 2518/2618 36012KT 9999 FEW023 
     BECMG 2522/2524 VRB02KT 
     BECMG 2609/2612 34010KT
       
DAUL 251900Z 21014KT 9999 FEW033 35/02 Q1016
TAF DAUL 251700Z 2518/2603 22014KT 9999 FEW030
       
DAOV 251900Z 36010KT 9999 FEW033 34/08 Q1012
TAF DAOV 251700Z 2518/2603 34010KT 9999 FEW033 SCT233 
     BECMG 2519/2521 VRB02KT
       
DAAY 251900Z 19010KT 9999 FEW030 34/08 Q1020
TAF DAAY 251700Z 2518/2603 VRB02KT 9999 FEW030 
     BECMG 2519/2522 16012KT
       
DAOO 251900Z 01003KT 9999 FEW020 SCT033 30/16 Q1009
TAF DAOO 251700Z 2518/2618 VRB02KT 9999 FEW020 BKN233 
     BECMG 2519/2521 29010KT 
     BECMG 2604/2607 VRB02KT 9999 FEW026 BKN233 
     BECMG 2608/2611 26010KT
       
DAOL 251800Z 07012KT 9999 FEW026 SCT200 37/11 Q1009
DAUU 251900Z 07005KT CAVOK 37/03 Q1013
TAF DAUU 251700Z 2518/2603 04008KT CAVOK
       
DAAS 251900Z 04009KT CAVOK 30/08 Q1020
TAF DAAS 251700Z 2518/2618 04010KT 9999 FEW030 
     BECMG 2520/2522 VRB02KT 
     BECMG 2609/2612 24010KT
       
DAAT 251900Z 24010KT 9000 FEW040CB SCT046 23/11 Q1023 RETS
TAF DAAT 251700Z 2518/2618 02008KT 8000 FEW040 
     TEMPO 2518/2521 02015G25KT FEW040CB SCT046TCU 
     PROB40 
     TEMPO 2612/2618 04015G25KT FEW040CB
       
DABS 251900Z 08008KT 9999 SCT040 32/07 Q1018
TAF DABS 251700Z 2518/2618 36010KT 9999 FEW040 
     PROB40 
     TEMPO 2518/2520 FEW030TCU 
     BECMG 2520/2522 VRB02KT 
     BECMG 2609/2612 34012KT
       
DAOB 251900Z 06005KT 9999 FEW026 34/09 Q1018
TAF DAOB 251700Z 2518/2618 VRB02KT CAVOK 
     BECMG 2600/2604 20015KT 
     BECMG 2609/2612 30010KT
       
DAFH 251800Z 27006KT CAVOK 36/05 Q1017
TAF DAFH 251700Z 2518/2603 18008KT 9999 FEW030
       
DAUT 251900Z 35008KT CAVOK 42/07 Q1012
TAF DAUT 251700Z 2518/2603 04012KT 8000 NSC
       
DAOF 251900Z 08010KT 8000 NSC 42/02 Q1010
TAF DAOF 251700Z 2518/2603 08008KT 8000 NSC
       
DAON 251900Z 34002KT 9999 SCT026 35/10 Q1009
TAF DAON 251700Z 2518/2618 VRB02KT 9999 FEW026 SCT233 
     BECMG 
     BECMG 2609/2612 34008KT 9999 FEW026 BKN233 
     BECMG 2616/2618 VRB02KT
       
DAUK 251900Z 16002KT CAVOK 36/16 Q1013
TAF DAUK 251700Z 2518/2603 10008KT CAVOK